sensor_id;sensor_type;location;lat;lon;timestamp;pressure;altitude;pressure_sealevel;temperature;humidity
7050;BME280;22263;52.260;10.548;2022-07-03T00:01:07;100699.81;;;20.57;100.00
7050;BME280;22263;52.260;10.548;2022-07-03T00:03:37;100687.78;;;20.57;100.00
7050;BME280;22263;52.260;10.548;2022-07-03T00:06:06;100694.53;;;20.59;100.00
7050;BME280;22263;52.260;10.548;2022-07-03T00:08:36;100688.91;;;20.59;100.00
7050;BME280;22263;52.260;10.548;2022-07-03T00:11:06;100692.16;;;20.58;100.00
7050;BME280;22263;52.260;10.548;2022-07-03T00:13:38;100682.16;;;20.57;100.00
7050;BME280;22263;52.260;10.548;2022-07-03T00:16:08;100681.47;;;20.53;100.00
7050;BME280;22263;52.260;10.548;2022-07-03T00:18:37;100686.19;;;20.56;100.00
7050;BME280;22263;52.260;10.548;2022-07-03T00:21:09;100675.06;;;20.52;100.00
7050;BME280;22263;52.260;10.548;2022-07-03T00:23:42;100683.81;;;20.54;100.00
7050;BME280;22263;52.260;10.548;2022-07-03T00:26:13;100677.94;;;20.49;100.00
7050;BME280;22263;52.260;10.548;2022-07-03T00:28:45;100672.31;;;20.49;100.00
7050;BME280;22263;52.260;10.548;2022-07-03T00:31:15;100671.09;;;20.50;100.00
7050;BME280;22263;52.260;10.548;2022-07-03T00:33:45;100669.44;;;20.52;100.00
7050;BME280;22263;52.260;10.548;2022-07-03T00:36:16;100663.81;;;20.52;100.00
7050;BME280;22263;52.260;10.548;2022-07-03T00:38:46;100652.06;;;20.41;100.00
7050;BME280;22263;52.260;10.548;2022-07-03T00:41:26;100646.56;;;20.37;100.00
7050;BME280;22263;52.260;10.548;2022-07-03T00:43:59;100651.53;;;20.46;100.00
7050;BME280;22263;52.260;10.548;2022-07-03T00:46:29;100638.16;;;20.50;100.00
7050;BME280;22263;52.260;10.548;2022-07-03T00:48:59;100642.47;;;20.55;100.00
7050;BME280;22263;52.260;10.548;2022-07-03T00:51:29;100637.19;;;20.57;100.00
7050;BME280;22263;52.260;10.548;2022-07-03T00:53:58;100632.69;;;20.59;100.00
7050;BME280;22263;52.260;10.548;2022-07-03T00:56:30;100627.88;;;20.60;100.00
7050;BME280;22263;52.260;10.548;2022-07-03T00:59:02;100637.00;;;20.64;100.00
7050;BME280;22263;52.260;10.548;2022-07-03T01:01:35;100634.38;;;20.57;100.00
7050;BME280;22263;52.260;10.548;2022-07-03T01:04:20;100631.88;;;20.46;100.00
7050;BME280;22263;52.260;10.548;2022-07-03T01:06:53;100640.72;;;20.44;100.00
7050;BME280;22263;52.260;10.548;2022-07-03T01:09:34;100631.19;;;20.42;100.00
7050;BME280;22263;52.260;10.548;2022-07-03T01:12:10;100634.53;;;20.37;100.00
7050;BME280;22263;52.260;10.548;2022-07-03T01:14:51;100623.03;;;20.31;100.00
7050;BME280;22263;52.260;10.548;2022-07-03T01:17:32;100620.63;;;20.30;100.00
7050;BME280;22263;52.260;10.548;2022-07-03T01:20:05;100619.94;;;20.26;100.00
7050;BME280;22263;52.260;10.548;2022-07-03T01:25:13;100628.34;;;20.26;100.00
7050;BME280;22263;52.260;10.548;2022-07-03T01:27:58;100627.22;;;20.23;100.00
7050;BME280;22263;52.260;10.548;2022-07-03T01:30:33;100625.81;;;20.15;100.00
7050;BME280;22263;52.260;10.548;2022-07-03T01:33:10;100620.66;;;20.14;100.00
7050;BME280;22263;52.260;10.548;2022-07-03T01:35:43;100623.53;;;20.10;100.00
7050;BME280;22263;52.260;10.548;2022-07-03T01:38:16;100619.94;;;20.10;100.00
7050;BME280;22263;52.260;10.548;2022-07-03T01:40:48;100612.09;;;20.05;100.00
7050;BME280;22263;52.260;10.548;2022-07-03T01:43:27;100616.09;;;20.03;100.00
7050;BME280;22263;52.260;10.548;2022-07-03T01:45:59;100613.22;;;19.91;100.00
7050;BME280;22263;52.260;10.548;2022-07-03T01:48:31;100604.00;;;19.90;100.00
7050;BME280;22263;52.260;10.548;2022-07-03T01:51:01;100610.06;;;19.89;100.00
7050;BME280;22263;52.260;10.548;2022-07-03T01:53:30;100604.09;;;19.87;100.00
7050;BME280;22263;52.260;10.548;2022-07-03T01:56:02;100597.34;;;19.84;100.00
7050;BME280;22263;52.260;10.548;2022-07-03T01:58:35;100599.00;;;19.82;100.00
7050;BME280;22263;52.260;10.548;2022-07-03T02:01:08;100585.50;;;19.77;100.00
7050;BME280;22263;52.260;10.548;2022-07-03T02:03:42;100597.88;;;19.79;100.00
7050;BME280;22263;52.260;10.548;2022-07-03T02:06:22;100594.44;;;19.72;100.00
7050;BME280;22263;52.260;10.548;2022-07-03T02:09:02;100601.63;;;19.73;100.00
7050;BME280;22263;52.260;10.548;2022-07-03T02:11:51;100594.97;;;19.67;100.00
7050;BME280;22263;52.260;10.548;2022-07-03T02:14:31;100595.22;;;19.72;100.00
7050;BME280;22263;52.260;10.548;2022-07-03T02:17:04;100599.34;;;19.68;100.00
7050;BME280;22263;52.260;10.548;2022-07-03T02:19:41;100604.97;;;19.68;100.00
7050;BME280;22263;52.260;10.548;2022-07-03T02:22:13;100600.41;;;19.57;100.00
7050;BME280;22263;52.260;10.548;2022-07-03T02:24:44;100606.09;;;19.54;100.00
7050;BME280;22263;52.260;10.548;2022-07-03T02:27:16;100603.38;;;19.50;100.00
7050;BME280;22263;52.260;10.548;2022-07-03T02:29:54;100600.72;;;19.43;100.00
7050;BME280;22263;52.260;10.548;2022-07-03T02:32:26;100598.41;;;19.38;100.00
7050;BME280;22263;52.260;10.548;2022-07-03T02:35:02;100591.16;;;19.41;100.00
7050;BME280;22263;52.260;10.548;2022-07-03T02:37:35;100598.09;;;19.36;100.00
7050;BME280;22263;52.260;10.548;2022-07-03T02:40:14;100598.50;;;19.35;100.00
7050;BME280;22263;52.260;10.548;2022-07-03T02:42:54;100587.28;;;19.35;100.00
7050;BME280;22263;52.260;10.548;2022-07-03T02:45:36;100597.00;;;19.30;100.00
7050;BME280;22263;52.260;10.548;2022-07-03T02:48:16;100596.81;;;19.21;100.00
7050;BME280;22263;52.260;10.548;2022-07-03T02:50:49;100594.81;;;19.22;100.00
7050;BME280;22263;52.260;10.548;2022-07-03T02:53:26;100590.31;;;19.08;100.00
7050;BME280;22263;52.260;10.548;2022-07-03T02:56:05;100593.13;;;19.08;100.00
7050;BME280;22263;52.260;10.548;2022-07-03T02:59:03;100594.06;;;19.01;100.00
7050;BME280;22263;52.260;10.548;2022-07-03T03:01:44;100593.44;;;18.94;100.00
7050;BME280;22263;52.260;10.548;2022-07-03T03:04:21;100595.34;;;18.97;100.00
7050;BME280;22263;52.260;10.548;2022-07-03T03:06:54;100597.53;;;18.89;100.00
7050;BME280;22263;52.260;10.548;2022-07-03T03:09:27;100601.91;;;18.90;100.00
7050;BME280;22263;52.260;10.548;2022-07-03T03:12:01;100590.94;;;18.80;100.00
7050;BME280;22263;52.260;10.548;2022-07-03T03:14:40;100583.97;;;18.68;100.00
7050;BME280;22263;52.260;10.548;2022-07-03T03:17:17;100596.38;;;18.67;100.00
7050;BME280;22263;52.260;10.548;2022-07-03T03:19:52;100580.22;;;18.55;100.00
7050;BME280;22263;52.260;10.548;2022-07-03T03:22:28;100584.63;;;18.56;100.00
7050;BME280;22263;52.260;10.548;2022-07-03T03:25:03;100581.84;;;18.52;100.00
7050;BME280;22263;52.260;10.548;2022-07-03T03:27:33;100576.22;;;18.56;100.00
7050;BME280;22263;52.260;10.548;2022-07-03T03:30:04;100577.44;;;18.51;100.00
7050;BME280;22263;52.260;10.548;2022-07-03T03:32:38;100580.25;;;18.51;100.00
7050;BME280;22263;52.260;10.548;2022-07-03T03:35:10;100578.31;;;18.48;100.00
7050;BME280;22263;52.260;10.548;2022-07-03T03:37:39;100576.00;;;18.43;100.00
7050;BME280;22263;52.260;10.548;2022-07-03T03:40:10;100583.63;;;18.43;100.00
7050;BME280;22263;52.260;10.548;2022-07-03T03:42:40;100579.22;;;18.42;100.00
7050;BME280;22263;52.260;10.548;2022-07-03T03:45:10;100583.69;;;18.39;100.00
7050;BME280;22263;52.260;10.548;2022-07-03T03:47:42;100582.56;;;18.37;100.00
7050;BME280;22263;52.260;10.548;2022-07-03T03:50:12;100587.63;;;18.42;100.00
7050;BME280;22263;52.260;10.548;2022-07-03T03:52:41;100580.81;;;18.43;100.00
7050;BME280;22263;52.260;10.548;2022-07-03T03:55:11;100584.06;;;18.41;100.00
7050;BME280;22263;52.260;10.548;2022-07-03T03:57:43;100580.41;;;18.44;100.00
7050;BME280;22263;52.260;10.548;2022-07-03T04:00:13;100582.34;;;18.47;100.00
7050;BME280;22263;52.260;10.548;2022-07-03T04:02:46;100580.78;;;18.46;100.00
7050;BME280;22263;52.260;10.548;2022-07-03T04:05:15;100574.81;;;18.44;100.00
7050;BME280;22263;52.260;10.548;2022-07-03T04:07:45;100570.78;;;18.45;100.00
7050;BME280;22263;52.260;10.548;2022-07-03T04:10:14;100565.97;;;18.46;100.00
7050;BME280;22263;52.260;10.548;2022-07-03T04:12:43;100563.97;;;18.46;100.00
7050;BME280;22263;52.260;10.548;2022-07-03T04:15:13;100571.50;;;18.49;100.00
7050;BME280;22263;52.260;10.548;2022-07-03T04:17:43;100566.69;;;18.50;100.00
7050;BME280;22263;52.260;10.548;2022-07-03T04:20:14;100565.34;;;18.58;100.00
7050;BME280;22263;52.260;10.548;2022-07-03T04:22:44;100571.75;;;18.58;100.00
7050;BME280;22263;52.260;10.548;2022-07-03T04:25:14;100567.81;;;18.56;100.00
7050;BME280;22263;52.260;10.548;2022-07-03T04:27:44;100561.75;;;18.57;100.00
7050;BME280;22263;52.260;10.548;2022-07-03T04:30:33;100570.63;;;18.56;100.00
7050;BME280;22263;52.260;10.548;2022-07-03T04:33:03;100570.03;;;18.64;100.00
7050;BME280;22263;52.260;10.548;2022-07-03T04:35:35;100558.66;;;18.71;100.00
7050;BME280;22263;52.260;10.548;2022-07-03T04:38:05;100564.63;;;18.73;100.00
7050;BME280;22263;52.260;10.548;2022-07-03T04:40:34;100558.16;;;18.77;100.00
7050;BME280;22263;52.260;10.548;2022-07-03T04:43:04;100555.91;;;18.88;100.00
7050;BME280;22263;52.260;10.548;2022-07-03T04:45:33;100555.75;;;18.95;100.00
7050;BME280;22263;52.260;10.548;2022-07-03T04:48:03;100559.44;;;18.92;100.00
7050;BME280;22263;52.260;10.548;2022-07-03T04:50:35;100558.50;;;18.98;100.00
7050;BME280;22263;52.260;10.548;2022-07-03T04:53:05;100555.41;;;18.93;100.00
7050;BME280;22263;52.260;10.548;2022-07-03T04:55:34;100549.72;;;18.96;100.00
7050;BME280;22263;52.260;10.548;2022-07-03T04:58:04;100561.50;;;19.07;100.00
7050;BME280;22263;52.260;10.548;2022-07-03T05:00:33;100555.78;;;19.11;100.00
7050;BME280;22263;52.260;10.548;2022-07-03T05:03:09;100560.28;;;19.25;100.00
7050;BME280;22263;52.260;10.548;2022-07-03T05:05:41;100551.19;;;19.37;100.00
7050;BME280;22263;52.260;10.548;2022-07-03T05:08:11;100555.00;;;19.46;100.00
7050;BME280;22263;52.260;10.548;2022-07-03T05:10:40;100557.44;;;19.61;100.00
7050;BME280;22263;52.260;10.548;2022-07-03T05:13:10;100558.31;;;19.74;100.00
7050;BME280;22263;52.260;10.548;2022-07-03T05:15:39;100557.53;;;19.89;100.00
7050;BME280;22263;52.260;10.548;2022-07-03T05:18:08;100564.78;;;20.03;100.00
7050;BME280;22263;52.260;10.548;2022-07-03T05:20:40;100561.59;;;20.17;100.00
7050;BME280;22263;52.260;10.548;2022-07-03T05:25:39;100553.41;;;20.23;100.00
7050;BME280;22263;52.260;10.548;2022-07-03T05:28:09;100553.59;;;20.32;100.00
7050;BME280;22263;52.260;10.548;2022-07-03T05:30:38;100547.22;;;20.44;100.00
7050;BME280;22263;52.260;10.548;2022-07-03T05:33:07;100549.16;;;20.47;100.00
7050;BME280;22263;52.260;10.548;2022-07-03T05:35:37;100548.50;;;20.56;100.00
7050;BME280;22263;52.260;10.548;2022-07-03T05:38:09;100555.84;;;20.66;100.00
7050;BME280;22263;52.260;10.548;2022-07-03T05:40:39;100546.72;;;20.62;100.00
7050;BME280;22263;52.260;10.548;2022-07-03T05:43:06;100546.75;;;20.74;100.00
7050;BME280;22263;52.260;10.548;2022-07-03T05:45:36;100548.00;;;20.86;100.00
7050;BME280;22263;52.260;10.548;2022-07-03T05:48:05;100552.50;;;20.96;100.00
7050;BME280;22263;52.260;10.548;2022-07-03T05:50:35;100552.97;;;21.07;100.00
7050;BME280;22263;52.260;10.548;2022-07-03T05:53:04;100552.78;;;21.14;100.00
7050;BME280;22263;52.260;10.548;2022-07-03T05:55:36;100547.59;;;21.25;100.00
7050;BME280;22263;52.260;10.548;2022-07-03T05:58:06;100548.97;;;21.34;100.00
7050;BME280;22263;52.260;10.548;2022-07-03T06:00:35;100540.84;;;21.36;100.00
7050;BME280;22263;52.260;10.548;2022-07-03T06:03:05;100545.00;;;21.56;100.00
7050;BME280;22263;52.260;10.548;2022-07-03T06:05:37;100545.22;;;21.62;100.00
7050;BME280;22263;52.260;10.548;2022-07-03T06:08:07;100538.31;;;21.75;100.00
7050;BME280;22263;52.260;10.548;2022-07-03T06:10:39;100542.22;;;21.78;100.00
7050;BME280;22263;52.260;10.548;2022-07-03T06:13:09;100541.44;;;21.90;100.00
7050;BME280;22263;52.260;10.548;2022-07-03T06:15:38;100535.13;;;21.99;100.00
7050;BME280;22263;52.260;10.548;2022-07-03T06:18:07;100538.81;;;22.08;100.00
7050;BME280;22263;52.260;10.548;2022-07-03T06:20:37;100531.41;;;22.24;100.00
7050;BME280;22263;52.260;10.548;2022-07-03T06:23:06;100531.16;;;22.31;100.00
7050;BME280;22263;52.260;10.548;2022-07-03T06:26:11;100520.91;;;22.46;100.00
7050;BME280;22263;52.260;10.548;2022-07-03T06:28:50;100514.44;;;22.58;100.00
7050;BME280;22263;52.260;10.548;2022-07-03T06:31:22;100519.22;;;22.70;100.00
7050;BME280;22263;52.260;10.548;2022-07-03T06:33:51;100528.97;;;22.78;100.00
7050;BME280;22263;52.260;10.548;2022-07-03T06:36:23;100535.06;;;22.98;100.00
7050;BME280;22263;52.260;10.548;2022-07-03T06:39:02;100529.47;;;23.17;100.00
7050;BME280;22263;52.260;10.548;2022-07-03T06:41:37;100533.09;;;23.17;100.00
7050;BME280;22263;52.260;10.548;2022-07-03T06:44:06;100531.22;;;23.14;99.84
7050;BME280;22263;52.260;10.548;2022-07-03T06:46:35;100528.13;;;23.21;100.00
7050;BME280;22263;52.260;10.548;2022-07-03T06:49:07;100523.16;;;23.43;98.90
7050;BME280;22263;52.260;10.548;2022-07-03T06:51:37;100534.34;;;23.56;100.00
7050;BME280;22263;52.260;10.548;2022-07-03T06:54:06;100535.16;;;23.75;98.59
7050;BME280;22263;52.260;10.548;2022-07-03T06:56:38;100530.81;;;23.92;96.32
7050;BME280;22263;52.260;10.548;2022-07-03T06:59:08;100530.69;;;24.23;96.21
7050;BME280;22263;52.260;10.548;2022-07-03T07:01:38;100533.19;;;24.39;93.47
7050;BME280;22263;52.260;10.548;2022-07-03T07:04:07;100527.53;;;24.48;92.83
7050;BME280;22263;52.260;10.548;2022-07-03T07:06:37;100528.34;;;24.40;90.20
7050;BME280;22263;52.260;10.548;2022-07-03T07:09:07;100532.84;;;24.64;90.00
7050;BME280;22263;52.260;10.548;2022-07-03T07:11:39;100529.50;;;24.75;88.50
7050;BME280;22263;52.260;10.548;2022-07-03T07:14:08;100528.13;;;24.89;85.86
7050;BME280;22263;52.260;10.548;2022-07-03T07:16:38;100532.19;;;24.88;87.79
7050;BME280;22263;52.260;10.548;2022-07-03T07:19:07;100538.28;;;24.95;88.76
7050;BME280;22263;52.260;10.548;2022-07-03T07:21:39;100533.19;;;25.08;87.00
7050;BME280;22263;52.260;10.548;2022-07-03T07:24:09;100532.63;;;24.95;83.25
7050;BME280;22263;52.260;10.548;2022-07-03T07:26:41;100541.88;;;25.38;81.33
7050;BME280;22263;52.260;10.548;2022-07-03T07:29:11;100546.28;;;25.72;80.30
7050;BME280;22263;52.260;10.548;2022-07-03T07:31:40;100536.13;;;25.65;80.32
7050;BME280;22263;52.260;10.548;2022-07-03T07:34:10;100542.78;;;26.00;79.22
7050;BME280;22263;52.260;10.548;2022-07-03T07:36:39;100543.09;;;26.02;76.40
7050;BME280;22263;52.260;10.548;2022-07-03T07:39:09;100543.44;;;26.19;74.25
7050;BME280;22263;52.260;10.548;2022-07-03T07:41:41;100540.78;;;26.16;75.78
7050;BME280;22263;52.260;10.548;2022-07-03T07:44:11;100546.84;;;26.47;75.12
7050;BME280;22263;52.260;10.548;2022-07-03T07:46:45;100535.03;;;26.78;73.49
7050;BME280;22263;52.260;10.548;2022-07-03T07:49:14;100539.31;;;27.17;70.21
7050;BME280;22263;52.260;10.548;2022-07-03T07:51:44;100537.03;;;27.51;69.16
7050;BME280;22263;52.260;10.548;2022-07-03T07:54:13;100535.53;;;27.55;66.25
7050;BME280;22263;52.260;10.548;2022-07-03T07:56:46;100540.72;;;27.77;65.93
7050;BME280;22263;52.260;10.548;2022-07-03T07:59:15;100542.75;;;28.11;63.86
7050;BME280;22263;52.260;10.548;2022-07-03T08:01:45;100539.19;;;28.16;62.26
7050;BME280;22263;52.260;10.548;2022-07-03T08:04:27;100539.91;;;28.32;58.93
7050;BME280;22263;52.260;10.548;2022-07-03T08:07:08;100540.06;;;28.23;56.51
7050;BME280;22263;52.260;10.548;2022-07-03T08:09:38;100544.81;;;27.91;57.52
7050;BME280;22263;52.260;10.548;2022-07-03T08:12:11;100537.06;;;27.91;57.28
7050;BME280;22263;52.260;10.548;2022-07-03T08:14:40;100539.47;;;27.78;58.95
7050;BME280;22263;52.260;10.548;2022-07-03T08:17:09;100540.03;;;28.02;58.69
7050;BME280;22263;52.260;10.548;2022-07-03T08:19:39;100543.19;;;28.50;56.74
7050;BME280;22263;52.260;10.548;2022-07-03T08:22:09;100536.81;;;28.81;54.63
7050;BME280;22263;52.260;10.548;2022-07-03T08:24:38;100543.56;;;29.15;52.11
7050;BME280;22263;52.260;10.548;2022-07-03T08:27:13;100553.91;;;29.44;50.72
7050;BME280;22263;52.260;10.548;2022-07-03T08:29:42;100537.72;;;29.30;50.21
7050;BME280;22263;52.260;10.548;2022-07-03T08:32:12;100551.97;;;29.30;50.39
7050;BME280;22263;52.260;10.548;2022-07-03T08:34:41;100543.63;;;29.58;50.56
7050;BME280;22263;52.260;10.548;2022-07-03T08:37:11;100540.06;;;29.68;50.89
7050;BME280;22263;52.260;10.548;2022-07-03T08:39:41;100545.22;;;30.18;50.59
7050;BME280;22263;52.260;10.548;2022-07-03T08:42:13;100537.72;;;30.15;49.13
7050;BME280;22263;52.260;10.548;2022-07-03T08:44:45;100546.09;;;30.35;49.85
7050;BME280;22263;52.260;10.548;2022-07-03T08:47:15;100530.59;;;30.64;48.22
7050;BME280;22263;52.260;10.548;2022-07-03T08:49:46;100538.97;;;31.06;46.98
7050;BME280;22263;52.260;10.548;2022-07-03T08:52:22;100534.50;;;31.00;45.62
7050;BME280;22263;52.260;10.548;2022-07-03T08:54:52;100525.69;;;30.87;44.85
7050;BME280;22263;52.260;10.548;2022-07-03T08:57:24;100537.59;;;30.63;48.12
7050;BME280;22263;52.260;10.548;2022-07-03T08:59:55;100526.47;;;30.93;48.04
7050;BME280;22263;52.260;10.548;2022-07-03T09:02:25;100541.78;;;31.40;46.23
7050;BME280;22263;52.260;10.548;2022-07-03T09:04:55;100529.28;;;31.59;46.45
7050;BME280;22263;52.260;10.548;2022-07-03T09:07:26;100532.09;;;31.76;45.10
7050;BME280;22263;52.260;10.548;2022-07-03T09:09:56;100534.78;;;31.41;44.30
7050;BME280;22263;52.260;10.548;2022-07-03T09:12:29;100542.03;;;31.47;44.68
7050;BME280;22263;52.260;10.548;2022-07-03T09:14:59;100534.78;;;31.24;43.68
7050;BME280;22263;52.260;10.548;2022-07-03T09:17:29;100535.06;;;31.15;45.25
7050;BME280;22263;52.260;10.548;2022-07-03T09:19:59;100533.72;;;31.49;44.72
7050;BME280;22263;52.260;10.548;2022-07-03T09:22:31;100543.09;;;32.24;43.20
7050;BME280;22263;52.260;10.548;2022-07-03T09:25:05;100544.38;;;32.29;42.55
7050;BME280;22263;52.260;10.548;2022-07-03T09:27:48;100537.09;;;32.74;41.91
7050;BME280;22263;52.260;10.548;2022-07-03T09:30:18;100541.34;;;32.98;40.86
7050;BME280;22263;52.260;10.548;2022-07-03T09:32:48;100531.72;;;32.95;40.48
7050;BME280;22263;52.260;10.548;2022-07-03T09:35:19;100542.38;;;32.65;41.13
7050;BME280;22263;52.260;10.548;2022-07-03T09:37:51;100539.63;;;32.83;41.41
7050;BME280;22263;52.260;10.548;2022-07-03T09:40:22;100519.72;;;33.81;39.84
7050;BME280;22263;52.260;10.548;2022-07-03T09:43:02;100531.00;;;33.73;39.41
7050;BME280;22263;52.260;10.548;2022-07-03T09:45:51;100525.44;;;34.24;38.43
7050;BME280;22263;52.260;10.548;2022-07-03T09:48:25;100528.81;;;34.03;38.32
7050;BME280;22263;52.260;10.548;2022-07-03T09:51:09;100520.47;;;34.93;37.38
7050;BME280;22263;52.260;10.548;2022-07-03T09:53:50;100515.28;;;35.50;36.17
7050;BME280;22263;52.260;10.548;2022-07-03T09:56:25;100517.69;;;34.88;36.62
7050;BME280;22263;52.260;10.548;2022-07-03T09:59:08;100519.72;;;36.04;36.02
7050;BME280;22263;52.260;10.548;2022-07-03T10:01:39;100510.16;;;36.09;35.52
7050;BME280;22263;52.260;10.548;2022-07-03T10:04:15;100509.66;;;35.13;36.17
7050;BME280;22263;52.260;10.548;2022-07-03T10:06:49;100512.63;;;36.05;36.33
7050;BME280;22263;52.260;10.548;2022-07-03T10:09:21;100516.56;;;37.17;35.17
7050;BME280;22263;52.260;10.548;2022-07-03T10:11:52;100524.59;;;37.31;34.71
7050;BME280;22263;52.260;10.548;2022-07-03T10:14:25;100517.06;;;37.57;33.96
7050;BME280;22263;52.260;10.548;2022-07-03T10:16:56;100508.38;;;37.28;34.37
7050;BME280;22263;52.260;10.548;2022-07-03T10:19:29;100533.44;;;35.58;34.94
7050;BME280;22263;52.260;10.548;2022-07-03T10:22:02;100517.81;;;35.40;34.85
7050;BME280;22263;52.260;10.548;2022-07-03T10:24:31;100524.00;;;34.11;36.63
7050;BME280;22263;52.260;10.548;2022-07-03T10:27:01;100513.53;;;35.73;35.58
7050;BME280;22263;52.260;10.548;2022-07-03T10:29:33;100518.16;;;35.37;35.88
7050;BME280;22263;52.260;10.548;2022-07-03T10:32:07;100521.13;;;35.18;35.81
7050;BME280;22263;52.260;10.548;2022-07-03T10:34:36;100525.53;;;35.19;36.18
7050;BME280;22263;52.260;10.548;2022-07-03T10:37:14;100517.69;;;34.19;37.01
7050;BME280;22263;52.260;10.548;2022-07-03T10:39:51;100509.25;;;34.39;37.68
7050;BME280;22263;52.260;10.548;2022-07-03T10:42:48;100501.13;;;35.39;35.77
7050;BME280;22263;52.260;10.548;2022-07-03T10:45:34;100507.41;;;36.50;34.73
7050;BME280;22263;52.260;10.548;2022-07-03T10:48:04;100506.44;;;35.61;34.16
7050;BME280;22263;52.260;10.548;2022-07-03T10:50:34;100509.31;;;35.74;34.26
7050;BME280;22263;52.260;10.548;2022-07-03T10:53:22;100509.56;;;34.73;35.06
7050;BME280;22263;52.260;10.548;2022-07-03T10:56:03;100498.41;;;34.83;35.81
7050;BME280;22263;52.260;10.548;2022-07-03T10:58:56;100490.56;;;34.83;36.31
7050;BME280;22263;52.260;10.548;2022-07-03T11:01:29;100490.28;;;34.87;36.22
7050;BME280;22263;52.260;10.548;2022-07-03T11:04:01;100495.50;;;33.76;37.24
7050;BME280;22263;52.260;10.548;2022-07-03T11:09:41;100480.94;;;36.05;35.08
7050;BME280;22263;52.260;10.548;2022-07-03T11:12:11;100486.19;;;36.40;35.04
7050;BME280;22263;52.260;10.548;2022-07-03T11:14:40;100476.78;;;36.40;34.32
7050;BME280;22263;52.260;10.548;2022-07-03T11:17:19;100484.50;;;36.79;34.43
7050;BME280;22263;52.260;10.548;2022-07-03T11:19:50;100469.88;;;37.90;33.75
7050;BME280;22263;52.260;10.548;2022-07-03T11:22:43;100475.75;;;36.92;34.01
7050;BME280;22263;52.260;10.548;2022-07-03T11:25:15;100471.13;;;36.68;33.42
7050;BME280;22263;52.260;10.548;2022-07-03T11:27:46;100482.00;;;36.62;33.64
7050;BME280;22263;52.260;10.548;2022-07-03T11:30:16;100479.78;;;36.55;34.16
7050;BME280;22263;52.260;10.548;2022-07-03T11:32:52;100472.22;;;35.58;34.10
7050;BME280;22263;52.260;10.548;2022-07-03T11:35:48;100468.53;;;36.78;33.76
7050;BME280;22263;52.260;10.548;2022-07-03T11:38:21;100475.09;;;37.27;33.33
7050;BME280;22263;52.260;10.548;2022-07-03T11:40:53;100470.22;;;37.22;33.47
7050;BME280;22263;52.260;10.548;2022-07-03T11:43:22;100471.50;;;36.51;33.47
7050;BME280;22263;52.260;10.548;2022-07-03T11:45:52;100470.06;;;36.79;33.69
7050;BME280;22263;52.260;10.548;2022-07-03T11:48:25;100469.53;;;37.29;33.07
7050;BME280;22263;52.260;10.548;2022-07-03T11:50:59;100472.78;;;37.26;33.16
7050;BME280;22263;52.260;10.548;2022-07-03T11:53:31;100461.19;;;37.82;32.58
7050;BME280;22263;52.260;10.548;2022-07-03T11:56:02;100463.97;;;37.60;31.95
7050;BME280;22263;52.260;10.548;2022-07-03T11:58:43;100472.31;;;38.07;31.96
7050;BME280;22263;52.260;10.548;2022-07-03T12:01:29;100467.94;;;37.49;32.47
7050;BME280;22263;52.260;10.548;2022-07-03T12:04:09;100463.31;;;38.25;31.54
7050;BME280;22263;52.260;10.548;2022-07-03T12:06:41;100474.66;;;38.23;31.74
7050;BME280;22263;52.260;10.548;2022-07-03T12:09:21;100471.22;;;37.04;32.76
7050;BME280;22263;52.260;10.548;2022-07-03T12:12:00;100468.91;;;35.40;33.46
7050;BME280;22263;52.260;10.548;2022-07-03T12:14:34;100478.97;;;34.76;35.52
7050;BME280;22263;52.260;10.548;2022-07-03T12:17:04;100467.94;;;35.77;34.33
7050;BME280;22263;52.260;10.548;2022-07-03T12:19:37;100460.91;;;36.67;33.14
7050;BME280;22263;52.260;10.548;2022-07-03T12:22:06;100459.69;;;37.53;31.80
7050;BME280;22263;52.260;10.548;2022-07-03T12:24:37;100460.25;;;36.40;32.34
7050;BME280;22263;52.260;10.548;2022-07-03T12:27:08;100461.00;;;36.20;32.82
7050;BME280;22263;52.260;10.548;2022-07-03T12:29:37;100453.97;;;35.29;33.57
7050;BME280;22263;52.260;10.548;2022-07-03T12:32:08;100458.72;;;35.26;33.67
7050;BME280;22263;52.260;10.548;2022-07-03T12:34:42;100466.09;;;36.14;33.23
7050;BME280;22263;52.260;10.548;2022-07-03T12:37:12;100469.34;;;35.44;33.75
7050;BME280;22263;52.260;10.548;2022-07-03T12:39:42;100456.41;;;35.25;33.97
7050;BME280;22263;52.260;10.548;2022-07-03T12:42:16;100453.97;;;35.81;33.48
7050;BME280;22263;52.260;10.548;2022-07-03T12:44:56;100457.03;;;35.83;33.11
7050;BME280;22263;52.260;10.548;2022-07-03T12:47:27;100454.28;;;35.65;32.84
7050;BME280;22263;52.260;10.548;2022-07-03T12:50:00;100447.00;;;35.77;33.10
7050;BME280;22263;52.260;10.548;2022-07-03T12:52:31;100455.53;;;35.30;33.29
7050;BME280;22263;52.260;10.548;2022-07-03T12:55:02;100446.88;;;35.56;33.56
7050;BME280;22263;52.260;10.548;2022-07-03T12:57:31;100433.63;;;36.13;32.90
7050;BME280;22263;52.260;10.548;2022-07-03T13:00:15;100443.16;;;36.08;32.97
7050;BME280;22263;52.260;10.548;2022-07-03T13:02:47;100445.31;;;35.55;33.46
7050;BME280;22263;52.260;10.548;2022-07-03T13:05:21;100449.88;;;35.51;33.66
7050;BME280;22263;52.260;10.548;2022-07-03T13:07:52;100448.06;;;36.00;33.62
7050;BME280;22263;52.260;10.548;2022-07-03T13:10:22;100441.91;;;36.17;33.00
7050;BME280;22263;52.260;10.548;2022-07-03T13:12:57;100443.31;;;36.57;33.12
7050;BME280;22263;52.260;10.548;2022-07-03T13:15:27;100437.31;;;36.68;32.55
7050;BME280;22263;52.260;10.548;2022-07-03T13:18:00;100431.06;;;37.06;32.39
7050;BME280;22263;52.260;10.548;2022-07-03T13:20:33;100427.69;;;36.94;32.07
7050;BME280;22263;52.260;10.548;2022-07-03T13:23:04;100429.06;;;36.73;33.01